createdAt,value
2023-02-06T00:01:43.602Z,25.3
2023-02-06T00:07:22.309Z,25.1
2023-02-06T00:13:00.125Z,25.1
2023-02-06T00:18:39.367Z,25.2
2023-02-06T00:24:17.495Z,24.8
2023-02-06T00:29:55.323Z,25.1
2023-02-06T00:35:34.270Z,25.3
2023-02-06T00:40:40.470Z,24.8
2023-02-06T00:46:03.185Z,24.9
2023-02-06T00:51:41.671Z,25.2
2023-02-06T00:57:18.865Z,24.9
2023-02-06T01:02:57.104Z,24.8
2023-02-06T01:08:36.805Z,25.1
2023-02-06T01:14:14.033Z,24.9
2023-02-06T01:19:51.964Z,24.8
2023-02-06T01:25:30.497Z,25.1
2023-02-06T01:31:07.735Z,24.9
2023-02-06T01:36:51.262Z,24.8
2023-02-06T01:42:29.999Z,25.1
2023-02-06T01:48:07.612Z,24.9
2023-02-06T01:53:45.147Z,24.7
2023-02-06T01:59:23.398Z,24.9
2023-02-06T02:05:01.768Z,24.9
2023-02-06T02:10:39.718Z,24.7
2023-02-06T02:16:17.609Z,25
2023-02-06T02:21:55.377Z,24.8
2023-02-06T02:27:34.623Z,24.6
2023-02-06T02:33:13.415Z,24.9
2023-02-06T02:38:50.654Z,24.8
2023-02-06T02:44:28.086Z,24.7
2023-02-06T02:50:07.216Z,24.9
2023-02-06T02:55:44.719Z,24.8
2023-02-06T03:01:22.386Z,24.6
2023-02-06T03:07:01.433Z,24.9
2023-02-06T03:12:38.723Z,24.8
2023-02-06T03:18:16.342Z,24.6
2023-02-06T03:23:54.643Z,24.9
2023-02-06T03:29:17.242Z,24.9
2023-02-06T03:34:55.765Z,24.5
2023-02-06T03:40:18.382Z,24.8
2023-02-06T03:45:56.702Z,24.8
2023-02-06T03:51:34.874Z,24.6
2023-02-06T03:57:14.040Z,24.8
2023-02-06T04:02:53.947Z,24.9
2023-02-06T04:08:16.232Z,24.6
2023-02-06T04:13:54.888Z,24.7
2023-02-06T04:19:41.248Z,25
2023-02-06T04:25:04.823Z,24.6
2023-02-06T04:30:43.162Z,24.6
2023-02-06T04:36:21.543Z,24.9
2023-02-06T04:41:59.313Z,24.6
2023-02-06T04:47:37.538Z,24.6
2023-02-06T04:53:14.470Z,24.9
2023-02-06T04:58:52.274Z,24.8
2023-02-06T05:04:15.312Z,24.6
2023-02-06T05:09:37.657Z,24.9
2023-02-06T05:15:16.789Z,25
2023-02-06T05:20:55.368Z,24.6
2023-02-06T05:26:33.464Z,24.8
2023-02-06T05:31:56.658Z,24.8
2023-02-06T05:37:35.020Z,24.6
2023-02-06T05:43:12.721Z,24.8
2023-02-06T05:48:38.070Z,25
2023-02-06T05:54:02.333Z,24.7
2023-02-06T05:59:24.536Z,24.6
2023-02-06T06:04:46.667Z,24.8
2023-02-06T06:10:25.362Z,24.8
2023-02-06T06:15:49.675Z,24.5
2023-02-06T06:21:28.211Z,24.8
2023-02-06T06:27:05.363Z,24.9
2023-02-06T06:32:44.298Z,24.5
2023-02-06T06:38:23.022Z,24.7
2023-02-06T06:44:00.344Z,24.9
2023-02-06T06:49:39.206Z,24.5
2023-02-06T06:55:27.264Z,24.6
2023-02-06T07:01:05.340Z,24.9
2023-02-06T07:06:28.687Z,24.9
2023-02-06T07:12:06.711Z,24.8
2023-02-06T07:17:45.561Z,24.9
2023-02-06T07:23:23.359Z,24.8
2023-02-06T07:29:01.666Z,24.6
2023-02-06T07:34:40.356Z,24.9
2023-02-06T07:40:18.570Z,24.8
2023-02-06T07:45:34.454Z,24.6
2023-02-06T07:51:13.860Z,24.8
2023-02-06T07:56:51.295Z,24.8
2023-02-06T08:02:29.815Z,24.6
2023-02-06T08:08:09.024Z,24.8
2023-02-06T08:13:46.866Z,24.9
2023-02-06T08:19:25.339Z,24.5
2023-02-06T08:25:04.147Z,24.8
2023-02-06T08:30:42.614Z,24.9
2023-02-06T08:36:05.629Z,24.6
2023-02-06T08:41:44.649Z,24.8
2023-02-06T08:47:27.284Z,24.9
2023-02-06T08:53:06.725Z,24.8
2023-02-06T08:58:45.439Z,25
2023-02-06T09:04:08.490Z,24.6
2023-02-06T09:09:31.907Z,24.6
2023-02-06T09:15:16.427Z,24.9
2023-02-06T09:20:54.879Z,24.6
2023-02-06T09:26:32.110Z,24.7
2023-02-06T09:32:23.894Z,25
2023-02-06T09:38:02.202Z,24.6
2023-02-06T09:43:39.793Z,24.8
2023-02-06T09:49:18.953Z,25
2023-02-06T09:54:56.891Z,24.6
2023-02-06T10:00:35.247Z,24.8
2023-02-06T10:06:14.696Z,24.9
2023-02-06T10:11:38.927Z,24.6
2023-02-06T10:17:19.070Z,24.9
2023-02-06T10:22:57.711Z,24.9
2023-02-06T10:28:35.962Z,24.7
2023-02-06T10:34:24.122Z,24.9
2023-02-06T10:39:46.839Z,24.9
2023-02-06T10:45:19.530Z,24.9
2023-02-06T10:50:43.655Z,24.9
2023-02-06T10:56:23.480Z,24.6
2023-02-06T11:02:17.237Z,24.9
2023-02-06T11:08:10.837Z,24.9
2023-02-06T11:13:49.967Z,24.6
2023-02-06T11:19:13.995Z,24.9
2023-02-06T11:24:49.405Z,24.6
2023-02-06T11:30:31.162Z,24.5
2023-02-06T11:36:23.615Z,24.8
2023-02-06T11:42:05.331Z,24.6
2023-02-06T11:47:28.753Z,24.6
2023-02-06T11:53:07.048Z,24.8
2023-02-06T11:58:45.514Z,24.5
2023-02-06T12:04:24.924Z,24.6
2023-02-06T12:10:03.690Z,24.8
2023-02-06T12:15:56.267Z,24.4
2023-02-06T12:21:35.293Z,24.7
2023-02-06T12:27:14.432Z,24.7
2023-02-06T12:32:53.683Z,24.8
2023-02-06T12:38:16.684Z,24.8
2023-02-06T12:43:54.786Z,24.5
2023-02-06T12:49:35.559Z,24.7
2023-02-06T12:55:14.377Z,24.5
2023-02-06T13:01:05.616Z,24.6
2023-02-06T13:06:52.770Z,24.7
2023-02-06T13:12:37.631Z,24.4
2023-02-06T13:19:29.479Z,24.8
2023-02-06T13:25:06.322Z,24.4
2023-02-06T13:30:45.197Z,24.6
2023-02-06T13:36:22.909Z,24.6
2023-02-06T13:41:46.497Z,24.5
2023-02-06T13:47:23.982Z,24.8
2023-02-06T13:52:44.617Z,24.5
2023-02-06T13:58:22.963Z,24.5
2023-02-06T14:04:01.529Z,24.8
2023-02-06T14:09:22.282Z,24.4
2023-02-06T14:14:59.468Z,24.6
2023-02-06T14:20:37.843Z,24.8
2023-02-06T14:26:16.269Z,24.7
2023-02-06T14:31:53.669Z,24.8
2023-02-06T14:37:17.223Z,24.4
2023-02-06T14:42:54.504Z,24.7
2023-02-06T14:48:51.971Z,24.6
2023-02-06T14:54:17.419Z,24.4
2023-02-06T14:59:56.782Z,24.8
2023-02-06T15:05:19.621Z,24.4
2023-02-06T15:10:57.285Z,24.5
2023-02-06T15:16:34.471Z,24.8
2023-02-06T15:21:40.760Z,24.3
2023-02-06T15:27:32.185Z,24
2023-02-06T15:32:53.709Z,23.7
2023-02-06T15:38:15.014Z,23.8
2023-02-06T15:43:55.839Z,24.2
2023-02-06T15:49:19.260Z,24.8
2023-02-06T15:54:55.750Z,25.1
2023-02-06T16:00:33.385Z,25.5
2023-02-06T16:05:55.675Z,26
2023-02-06T16:11:16.868Z,26.4
2023-02-06T16:16:39.453Z,26.8
2023-02-06T16:22:16.680Z,26.9
2023-02-06T16:27:53.711Z,27.1
2023-02-06T16:33:31.939Z,27.3
2023-02-06T16:39:21.469Z,27.4
2023-02-06T16:45:13.477Z,27.5
2023-02-06T16:50:50.499Z,27.6
2023-02-06T16:56:13.397Z,27.6
2023-02-06T17:02:05.024Z,27.4
2023-02-06T17:07:41.937Z,27.3
2023-02-06T17:13:03.515Z,27.5
2023-02-06T17:18:28.651Z,28
2023-02-06T17:23:50.972Z,28.3
2023-02-06T17:29:12.524Z,28.4
2023-02-06T17:34:50.878Z,28.6
2023-02-06T17:39:42.033Z,28.8
2023-02-06T17:44:48.171Z,28.8
2023-02-06T17:50:09.257Z,28.8
2023-02-06T17:55:31.626Z,28.8
2023-02-06T18:00:53.388Z,28.9
2023-02-06T18:06:33.235Z,29.1
2023-02-06T18:11:55.071Z,29.2
2023-02-06T18:17:32.216Z,29.2
2023-02-06T18:23:12.390Z,29.2
2023-02-06T18:28:49.420Z,29.2
2023-02-06T18:34:21.509Z,29.2
2023-02-06T18:39:43.206Z,29.2
2023-02-06T18:45:04.958Z,29.2
2023-02-06T18:50:42.379Z,29.3
2023-02-06T18:56:18.870Z,29.4
2023-02-06T19:01:41.076Z,29.4
2023-02-06T19:07:17.794Z,29.4
2023-02-06T19:12:44.571Z,29.4
2023-02-06T19:18:32.466Z,29.6
2023-02-06T19:24:14.662Z,29.9
2023-02-06T19:29:53.145Z,30
2023-02-06T19:35:15.896Z,29.9
2023-02-06T19:40:38.525Z,30
2023-02-06T19:46:15.536Z,29.9
2023-02-06T19:51:54.587Z,29.8
2023-02-06T19:57:32.579Z,29.8
2023-02-06T20:03:09.691Z,29.8
2023-02-06T20:08:47.065Z,29.9
2023-02-06T20:14:24.502Z,29.8
2023-02-06T20:19:46.573Z,29.8
2023-02-06T20:25:24.439Z,29.8
2023-02-06T20:30:46.767Z,29.7
2023-02-06T20:36:09.396Z,29.7
2023-02-06T20:41:31.369Z,29.7
2023-02-06T20:46:54.025Z,29.6
2023-02-06T20:52:30.645Z,29.6
2023-02-06T20:57:52.884Z,29.6
2023-02-06T21:03:14.613Z,29.6
2023-02-06T21:08:51.303Z,29.6
2023-02-06T21:14:28.641Z,29.6
2023-02-06T21:20:06.394Z,29.5
2023-02-06T21:26:00.690Z,29.5
2023-02-06T21:31:23.314Z,29.5
2023-02-06T21:37:01.319Z,29.5
2023-02-06T21:42:38.511Z,29.4
2023-02-06T21:48:15.627Z,29.4
2023-02-06T21:53:52.580Z,29.3
2023-02-06T21:59:29.678Z,29.2
2023-02-06T22:05:07.131Z,29
2023-02-06T22:10:46.872Z,28.9
2023-02-06T22:16:24.318Z,28.9
2023-02-06T22:22:02.633Z,28.2
2023-02-06T22:27:41.476Z,27.6
2023-02-06T22:33:19.013Z,27
2023-02-06T22:38:57.030Z,27.3
2023-02-06T22:44:34.722Z,27.4
2023-02-06T22:49:56.448Z,26.9
2023-02-06T22:55:33.241Z,26.5
2023-02-06T23:01:11.561Z,26.2
2023-02-06T23:06:48.485Z,26.6
2023-02-06T23:12:10.700Z,26.7
2023-02-06T23:17:48.682Z,26.2
2023-02-06T23:23:24.400Z,25.8
2023-02-06T23:28:46.577Z,25.8
2023-02-06T23:34:08.106Z,26.1
2023-02-06T23:39:29.046Z,26
2023-02-06T23:45:06.144Z,25.5
2023-02-06T23:50:43.400Z,25.7
2023-02-06T23:56:19.840Z,25.9
